createdAt,value
2016-08-13T00:00:03.309Z,17
2016-08-13T00:00:13.307Z,17
2016-08-13T00:00:23.313Z,17
2016-08-13T00:00:33.313Z,17
2016-08-13T00:00:43.319Z,16.9
2016-08-13T00:00:53.323Z,17
2016-08-13T00:01:03.324Z,17
2016-08-13T00:01:13.329Z,16.9
2016-08-13T00:01:23.332Z,17
2016-08-13T00:01:33.337Z,16.9
2016-08-13T00:01:43.340Z,17
2016-08-13T00:01:53.343Z,17
2016-08-13T00:02:03.345Z,16.9
2016-08-13T00:02:13.350Z,17
2016-08-13T00:02:23.352Z,17
2016-08-13T00:02:33.355Z,16.9
2016-08-13T00:02:43.360Z,16.9
2016-08-13T00:02:53.366Z,17
2016-08-13T00:03:03.366Z,16.9
2016-08-13T00:03:13.369Z,17
2016-08-13T00:03:23.371Z,16.9
2016-08-13T00:03:33.375Z,16.9
2016-08-13T00:03:43.380Z,17
2016-08-13T00:03:53.382Z,16.9
2016-08-13T00:04:03.388Z,17
2016-08-13T00:04:13.389Z,16.9
2016-08-13T00:04:23.397Z,17
2016-08-13T00:04:33.398Z,16.9
2016-08-13T00:04:43.402Z,16.9
2016-08-13T00:04:53.404Z,16.9
2016-08-13T00:05:03.408Z,16.9
2016-08-13T00:05:13.412Z,17
2016-08-13T00:05:23.416Z,16.9
2016-08-13T00:05:33.417Z,16.9
2016-08-13T00:05:43.423Z,17
2016-08-13T00:05:53.430Z,16.9
2016-08-13T00:06:03.430Z,16.9
2016-08-13T00:06:13.432Z,16.9
2016-08-13T00:06:23.437Z,16.9
2016-08-13T00:06:33.443Z,16.9
2016-08-13T00:06:43.446Z,17
2016-08-13T00:06:53.447Z,16.9
2016-08-13T00:07:03.452Z,17
2016-08-13T00:07:13.456Z,16.9
2016-08-13T00:07:23.465Z,17
2016-08-13T00:07:33.462Z,17
2016-08-13T00:07:43.466Z,17
2016-08-13T00:07:53.469Z,16.9
2016-08-13T00:08:03.475Z,16.9
2016-08-13T00:08:13.477Z,16.9
2016-08-13T00:08:23.484Z,16.9
2016-08-13T00:08:33.483Z,16.9
2016-08-13T00:08:43.487Z,16.9
2016-08-13T00:08:53.492Z,16.9
2016-08-13T00:09:03.494Z,16.9
2016-08-13T00:09:13.497Z,16.9
2016-08-13T00:09:23.503Z,16.9
2016-08-13T00:09:33.507Z,16.9
2016-08-13T00:09:43.507Z,17
2016-08-13T00:09:53.514Z,16.9
2016-08-13T00:10:03.514Z,16.8
2016-08-13T00:10:13.524Z,17
2016-08-13T00:10:23.521Z,16.9
2016-08-13T00:10:33.527Z,16.9
2016-08-13T00:10:43.534Z,17
2016-08-13T00:10:53.534Z,16.9
2016-08-13T00:11:03.538Z,16.8
2016-08-13T00:11:13.541Z,16.9
2016-08-13T00:11:23.551Z,16.8
2016-08-13T00:11:33.547Z,16.8
2016-08-13T00:11:43.556Z,16.9
2016-08-13T00:11:53.555Z,16.9
2016-08-13T00:12:03.558Z,16.9
2016-08-13T00:12:13.561Z,16.8
2016-08-13T00:12:23.565Z,16.9
2016-08-13T00:12:33.570Z,16.9
2016-08-13T00:12:43.571Z,16.9
2016-08-13T00:12:53.577Z,16.9
2016-08-13T00:13:03.578Z,16.8
2016-08-13T00:13:13.587Z,16.9
2016-08-13T00:13:23.587Z,16.9
2016-08-13T00:13:33.591Z,16.8
2016-08-13T00:13:43.598Z,16.8
2016-08-13T00:13:53.599Z,16.9
2016-08-13T00:14:03.602Z,16.9
2016-08-13T00:14:13.604Z,16.8
2016-08-13T00:14:23.609Z,16.8
2016-08-13T00:14:33.612Z,16.8
2016-08-13T00:14:43.615Z,16.7
2016-08-13T00:14:53.619Z,16.8
2016-08-13T00:15:03.626Z,16.9
2016-08-13T00:15:13.627Z,16.7
2016-08-13T00:15:23.635Z,16.8
2016-08-13T00:15:33.635Z,16.8
2016-08-13T00:15:43.636Z,16.8
2016-08-13T00:15:53.639Z,16.8
2016-08-13T00:16:03.645Z,16.7
2016-08-13T00:16:13.646Z,16.7
2016-08-13T00:16:23.656Z,16.8
2016-08-13T00:16:33.656Z,16.8
2016-08-13T00:16:43.658Z,16.8
2016-08-13T00:16:53.667Z,16.8
2016-08-13T00:17:03.666Z,16.8
2016-08-13T00:17:13.668Z,16.8
2016-08-13T00:17:23.673Z,16.8
2016-08-13T00:17:33.675Z,16.8
2016-08-13T00:17:43.678Z,16.8
2016-08-13T00:17:53.682Z,16.8
2016-08-13T00:18:03.687Z,16.8
2016-08-13T00:18:13.690Z,16.8
2016-08-13T00:18:23.697Z,16.8
2016-08-13T00:18:33.697Z,16.8
2016-08-13T00:18:43.700Z,16.8
2016-08-13T00:18:53.704Z,16.8
2016-08-13T00:19:03.714Z,16.8
2016-08-13T00:19:13.712Z,16.8
2016-08-13T00:19:23.714Z,16.8
2016-08-13T00:19:33.720Z,16.8
2016-08-13T00:19:43.721Z,16.8
2016-08-13T00:19:53.729Z,16.7
2016-08-13T00:20:03.730Z,16.8
2016-08-13T00:20:13.736Z,16.8
2016-08-13T00:20:23.737Z,16.9
2016-08-13T00:20:33.741Z,16.8
2016-08-13T00:20:43.744Z,16.8
2016-08-13T00:20:53.747Z,16.7
2016-08-13T00:21:03.753Z,16.8
2016-08-13T00:21:13.755Z,16.8
2016-08-13T00:21:23.758Z,16.7
2016-08-13T00:21:33.762Z,16.8
2016-08-13T00:21:43.769Z,16.7
2016-08-13T00:21:53.771Z,16.7
2016-08-13T00:22:03.779Z,16.8
2016-08-13T00:22:13.774Z,16.8
2016-08-13T00:22:23.787Z,16.8
2016-08-13T00:22:33.785Z,16.8
2016-08-13T00:22:43.788Z,16.8
2016-08-13T00:22:53.790Z,16.8
2016-08-13T00:23:03.794Z,16.8
2016-08-13T00:23:13.798Z,16.8
2016-08-13T00:23:23.802Z,16.8
2016-08-13T00:23:33.809Z,16.8
2016-08-13T00:23:43.808Z,16.7
2016-08-13T00:23:53.816Z,16.8
2016-08-13T00:24:03.816Z,16.8
2016-08-13T00:24:13.819Z,16.9
2016-08-13T00:24:23.822Z,16.8
2016-08-13T00:24:33.825Z,16.7
2016-08-13T00:24:43.829Z,16.8
2016-08-13T00:24:53.833Z,16.8
2016-08-13T00:25:03.844Z,16.8
2016-08-13T00:25:13.840Z,16.8
2016-08-13T00:25:23.847Z,16.8
2016-08-13T00:25:33.847Z,16.8
2016-08-13T00:25:43.850Z,16.8
2016-08-13T00:25:53.857Z,16.8
2016-08-13T00:26:03.857Z,16.8
2016-08-13T00:26:13.862Z,16.8
2016-08-13T00:26:23.864Z,16.8
2016-08-13T00:26:33.870Z,16.8
2016-08-13T00:26:43.873Z,16.8
2016-08-13T00:26:53.880Z,16.8
2016-08-13T00:27:03.879Z,16.8
2016-08-13T00:27:13.887Z,16.8
2016-08-13T00:27:23.887Z,16.8
2016-08-13T00:27:33.891Z,16.8
2016-08-13T00:27:43.893Z,16.7
2016-08-13T00:27:53.897Z,16.8
2016-08-13T00:28:03.900Z,16.7
2016-08-13T00:28:13.904Z,16.7
2016-08-13T00:28:23.908Z,16.8
2016-08-13T00:28:33.910Z,16.8
2016-08-13T00:28:43.918Z,16.7
2016-08-13T00:28:53.919Z,16.7
2016-08-13T00:29:03.921Z,16.8
2016-08-13T00:29:13.929Z,16.8
2016-08-13T00:29:23.930Z,16.9
2016-08-13T00:29:33.931Z,16.9
2016-08-13T00:29:43.937Z,16.9
2016-08-13T00:29:53.941Z,16.8
2016-08-13T00:30:03.945Z,16.9
2016-08-13T00:30:13.949Z,16.9
2016-08-13T00:30:23.952Z,16.9
2016-08-13T00:30:33.954Z,16.9
2016-08-13T00:30:43.958Z,16.9
2016-08-13T00:30:53.962Z,16.9
2016-08-13T00:31:03.964Z,17
2016-08-13T00:31:13.968Z,16.9
2016-08-13T00:31:23.972Z,16.9
2016-08-13T00:31:33.978Z,16.9
2016-08-13T00:31:43.978Z,16.9
2016-08-13T00:31:53.983Z,17
2016-08-13T00:32:03.987Z,16.9
2016-08-13T00:32:13.989Z,17
2016-08-13T00:32:23.993Z,16.9
2016-08-13T00:32:33.999Z,16.9
2016-08-13T00:32:44.002Z,16.8
2016-08-13T00:32:54.005Z,16.9
2016-08-13T00:33:04.006Z,16.9
2016-08-13T00:33:14.012Z,16.9
2016-08-13T00:33:24.017Z,16.9
2016-08-13T00:33:34.024Z,16.8
2016-08-13T00:33:44.025Z,17
2016-08-13T00:33:54.032Z,16.9
2016-08-13T00:34:04.030Z,16.9
2016-08-13T00:34:14.033Z,16.8
2016-08-13T00:34:24.036Z,16.9
2016-08-13T00:34:34.041Z,17
2016-08-13T00:34:44.043Z,16.9
2016-08-13T00:34:54.047Z,16.8
2016-08-13T00:35:04.050Z,16.9
2016-08-13T00:35:14.054Z,16.9
2016-08-13T00:35:24.057Z,16.8
2016-08-13T00:35:34.061Z,16.9
2016-08-13T00:35:44.064Z,16.9
2016-08-13T00:35:54.068Z,16.9
2016-08-13T00:36:04.071Z,16.9
2016-08-13T00:36:14.078Z,16.8
2016-08-13T00:36:24.077Z,16.8
2016-08-13T00:36:34.083Z,16.8
2016-08-13T00:36:44.084Z,16.8
2016-08-13T00:36:54.090Z,16.8
2016-08-13T00:37:04.092Z,16.8
2016-08-13T00:37:14.098Z,16.8
2016-08-13T00:37:24.101Z,16.8
2016-08-13T00:37:34.103Z,16.8
2016-08-13T00:37:44.114Z,16.7
2016-08-13T00:37:54.111Z,16.8
2016-08-13T00:38:04.117Z,16.8
2016-08-13T00:38:14.117Z,16.8
2016-08-13T00:38:24.121Z,16.8
2016-08-13T00:38:34.124Z,16.8
2016-08-13T00:38:44.131Z,16.8
2016-08-13T00:38:54.131Z,16.8
2016-08-13T00:39:04.135Z,16.8
2016-08-13T00:39:14.139Z,16.8
2016-08-13T00:39:24.146Z,16.8
2016-08-13T00:39:34.146Z,16.8
2016-08-13T00:39:44.149Z,16.8
2016-08-13T00:39:54.152Z,16.9
2016-08-13T00:40:04.157Z,16.8
2016-08-13T00:40:14.170Z,16.7
2016-08-13T00:40:24.162Z,16.7
2016-08-13T00:40:34.169Z,16.8
2016-08-13T00:40:44.171Z,16.8
2016-08-13T00:40:54.176Z,16.8
2016-08-13T00:41:04.178Z,16.7
2016-08-13T00:41:14.182Z,16.7
2016-08-13T00:41:24.188Z,16.7
2016-08-13T00:41:34.192Z,16.6
2016-08-13T00:41:44.192Z,16.7
2016-08-13T00:41:54.198Z,16.7
2016-08-13T00:42:04.201Z,16.7
2016-08-13T00:42:14.203Z,16.7
2016-08-13T00:42:24.208Z,16.7
2016-08-13T00:42:34.213Z,16.7
2016-08-13T00:42:44.214Z,16.7
2016-08-13T00:42:54.219Z,16.7
2016-08-13T00:43:04.223Z,16.7
2016-08-13T00:43:14.228Z,16.7
2016-08-13T00:43:24.244Z,16.6
2016-08-13T00:43:34.237Z,16.7
2016-08-13T00:43:44.236Z,16.6
2016-08-13T00:43:54.241Z,16.7
2016-08-13T00:44:04.246Z,16.7
2016-08-13T00:44:14.249Z,16.7
2016-08-13T00:44:24.251Z,16.6
2016-08-13T00:44:34.255Z,16.8
2016-08-13T00:44:44.257Z,16.7
2016-08-13T00:44:54.263Z,16.7
2016-08-13T00:45:04.264Z,16.7
2016-08-13T00:45:14.269Z,16.6
2016-08-13T00:45:24.273Z,16.7
2016-08-13T00:45:34.277Z,16.6
2016-08-13T00:45:44.280Z,16.7
2016-08-13T00:45:54.283Z,16.7
2016-08-13T00:46:04.288Z,16.7
2016-08-13T00:46:14.292Z,16.7
2016-08-13T00:46:24.296Z,16.6
2016-08-13T00:46:34.297Z,16.6
2016-08-13T00:46:44.302Z,16.7
2016-08-13T00:46:54.304Z,16.7
2016-08-13T00:47:04.307Z,16.7
2016-08-13T00:47:14.311Z,16.7
2016-08-13T00:47:24.312Z,16.6
2016-08-13T00:47:34.315Z,16.6
2016-08-13T00:47:44.319Z,16.6
2016-08-13T00:47:54.325Z,16.6
2016-08-13T00:48:04.328Z,16.6
2016-08-13T00:48:14.330Z,16.6
2016-08-13T00:48:24.333Z,16.6
2016-08-13T00:48:34.339Z,16.6
2016-08-13T00:48:44.342Z,16.6
2016-08-13T00:48:54.345Z,16.7
2016-08-13T00:49:04.352Z,16.7
2016-08-13T00:49:14.353Z,16.6
2016-08-13T00:49:24.358Z,16.7
2016-08-13T00:49:34.358Z,16.7
2016-08-13T00:49:44.372Z,16.7
2016-08-13T00:49:54.367Z,16.6
2016-08-13T00:50:04.370Z,16.6
2016-08-13T00:50:14.366Z,16.7
2016-08-13T00:50:24.376Z,16.6
2016-08-13T00:50:34.380Z,16.6
2016-08-13T00:50:44.384Z,16.6
2016-08-13T00:50:54.375Z,16.6
2016-08-13T00:51:04.390Z,16.6
2016-08-13T00:51:14.394Z,16.6
2016-08-13T00:51:24.397Z,16.6
2016-08-13T00:51:34.405Z,16.7
2016-08-13T00:51:44.394Z,16.6
2016-08-13T00:51:54.404Z,16.6
2016-08-13T00:52:04.410Z,16.6
2016-08-13T00:52:14.403Z,16.6
2016-08-13T00:52:24.418Z,16.6
2016-08-13T00:52:34.428Z,16.6
2016-08-13T00:52:44.415Z,16.6
2016-08-13T00:52:54.420Z,16.6
2016-08-13T00:53:04.439Z,16.5
2016-08-13T00:53:14.436Z,16.6
2016-08-13T00:53:24.446Z,16.5
2016-08-13T00:53:34.442Z,16.6
2016-08-13T00:53:44.448Z,16.6
2016-08-13T00:53:54.452Z,16.6
2016-08-13T00:54:04.454Z,16.6
2016-08-13T00:54:14.458Z,16.6
2016-08-13T00:54:24.462Z,16.5
2016-08-13T00:54:34.469Z,16.5
2016-08-13T00:54:44.469Z,16.6
2016-08-13T00:54:54.472Z,16.6
2016-08-13T00:55:04.476Z,16.6
2016-08-13T00:55:14.479Z,16.6
2016-08-13T00:55:24.481Z,16.5
2016-08-13T00:55:34.486Z,16.6
2016-08-13T00:55:44.495Z,16.5
2016-08-13T00:55:54.492Z,16.5
2016-08-13T00:56:04.497Z,16.5
2016-08-13T00:56:14.500Z,16.6
2016-08-13T00:56:24.507Z,16.6
2016-08-13T00:56:34.506Z,16.5
2016-08-13T00:56:44.510Z,16.6
2016-08-13T00:56:54.514Z,16.6
2016-08-13T00:57:04.518Z,16.5
2016-08-13T00:57:14.526Z,16.5
2016-08-13T00:57:24.524Z,16.6
2016-08-13T00:57:34.527Z,16.6
2016-08-13T00:57:44.531Z,16.5
2016-08-13T00:57:54.540Z,16.5
2016-08-13T00:58:04.538Z,16.5
2016-08-13T00:58:14.547Z,16.6
2016-08-13T00:58:24.552Z,16.6
2016-08-13T00:58:34.548Z,16.6
2016-08-13T00:58:44.554Z,16.5
2016-08-13T00:58:54.555Z,16.6
2016-08-13T00:59:04.561Z,16.6
2016-08-13T00:59:14.564Z,16.5
2016-08-13T00:59:24.567Z,16.6
2016-08-13T00:59:34.571Z,16.6
2016-08-13T00:59:44.576Z,16.5
2016-08-13T00:59:54.581Z,16.5
2016-08-13T01:00:04.582Z,16.5
2016-08-13T01:00:14.585Z,16.6
2016-08-13T01:00:24.588Z,16.5
2016-08-13T01:00:34.592Z,16.6
2016-08-13T01:00:44.599Z,16.6
2016-08-13T01:00:54.601Z,16.5
2016-08-13T01:01:04.603Z,16.5
2016-08-13T01:01:14.608Z,16.5
2016-08-13T01:01:24.609Z,16.5
2016-08-13T01:01:34.616Z,16.6
2016-08-13T01:01:44.615Z,16.5
2016-08-13T01:01:54.620Z,16.6
2016-08-13T01:02:04.625Z,16.5
2016-08-13T01:02:14.627Z,16.5
2016-08-13T01:02:24.629Z,16.6
2016-08-13T01:02:34.633Z,16.5
2016-08-13T01:02:44.636Z,16.5
2016-08-13T01:02:54.640Z,16.5
2016-08-13T01:03:04.644Z,16.5
2016-08-13T01:03:14.649Z,16.6
2016-08-13T01:03:24.653Z,16.5
2016-08-13T01:03:34.662Z,16.6
2016-08-13T01:03:44.658Z,16.5
2016-08-13T01:03:54.668Z,16.5
2016-08-13T01:04:04.667Z,16.4
2016-08-13T01:04:14.679Z,16.5
2016-08-13T01:04:24.673Z,16.4
2016-08-13T01:04:34.679Z,16.4
2016-08-13T01:04:44.680Z,16.5
2016-08-13T01:04:54.686Z,16.5
2016-08-13T01:05:04.687Z,16.5
2016-08-13T01:05:14.690Z,16.4
2016-08-13T01:05:24.695Z,16.5
2016-08-13T01:05:34.698Z,16.5
2016-08-13T01:05:44.702Z,16.5
2016-08-13T01:05:54.705Z,16.5
2016-08-13T01:06:04.709Z,16.4
2016-08-13T01:06:14.712Z,16.5
2016-08-13T01:06:24.714Z,16.5
2016-08-13T01:06:34.718Z,16.5
2016-08-13T01:06:44.726Z,16.5
2016-08-13T01:06:54.730Z,16.5
2016-08-13T01:07:04.737Z,16.5
2016-08-13T01:07:14.733Z,16.5
2016-08-13T01:07:24.736Z,16.5
2016-08-13T01:07:34.739Z,16.5
2016-08-13T01:07:44.743Z,16.5
2016-08-13T01:07:54.750Z,16.5
2016-08-13T01:08:04.750Z,16.5
2016-08-13T01:08:14.754Z,16.4
2016-08-13T01:08:24.756Z,16.5
2016-08-13T01:08:34.766Z,16.5
2016-08-13T01:08:44.768Z,16.4
2016-08-13T01:08:54.769Z,16.4
2016-08-13T01:09:04.771Z,16.5
2016-08-13T01:09:14.775Z,16.5
2016-08-13T01:09:24.781Z,16.5
2016-08-13T01:09:34.782Z,16.5
2016-08-13T01:09:44.787Z,16.5
2016-08-13T01:09:54.790Z,16.4
2016-08-13T01:10:04.792Z,16.4
2016-08-13T01:10:14.796Z,16.5
2016-08-13T01:10:24.799Z,16.5
2016-08-13T01:10:34.803Z,16.5
2016-08-13T01:10:44.807Z,16.4
2016-08-13T01:10:54.811Z,16.4
2016-08-13T01:11:04.815Z,16.4
2016-08-13T01:11:14.819Z,16.4
2016-08-13T01:11:24.821Z,16.4
2016-08-13T01:11:34.829Z,16.4
2016-08-13T01:11:44.828Z,16.5
2016-08-13T01:11:54.832Z,16.3
2016-08-13T01:12:04.836Z,16.3
2016-08-13T01:12:14.839Z,16.4
2016-08-13T01:12:24.842Z,16.4
2016-08-13T01:12:34.845Z,16.4
2016-08-13T01:12:44.850Z,16.4
2016-08-13T01:12:54.853Z,16.4
2016-08-13T01:13:04.857Z,16.4
2016-08-13T01:13:14.859Z,16.4
2016-08-13T01:13:24.863Z,16.3
2016-08-13T01:13:34.866Z,16.4
2016-08-13T01:13:44.870Z,16.4
2016-08-13T01:13:54.875Z,16.4
2016-08-13T01:14:04.876Z,16.4
2016-08-13T01:14:14.883Z,16.4
2016-08-13T01:14:24.884Z,16.4
2016-08-13T01:14:34.889Z,16.4
2016-08-13T01:14:44.890Z,16.4
2016-08-13T01:14:54.904Z,16.4
2016-08-13T01:15:04.898Z,16.3
2016-08-13T01:15:14.904Z,16.4
2016-08-13T01:15:24.904Z,16.5
2016-08-13T01:15:34.910Z,16.5
2016-08-13T01:15:44.912Z,16.3
2016-08-13T01:15:54.918Z,16.4
2016-08-13T01:16:04.921Z,16.4
2016-08-13T01:16:14.924Z,16.4
2016-08-13T01:16:24.932Z,16.3
2016-08-13T01:16:34.931Z,16.4
2016-08-13T01:16:44.935Z,16.4
2016-08-13T01:16:54.939Z,16.4
2016-08-13T01:17:04.941Z,16.3
2016-08-13T01:17:14.944Z,16.3
2016-08-13T01:17:24.950Z,16.4
2016-08-13T01:17:34.960Z,16.4
2016-08-13T01:17:44.955Z,16.4
2016-08-13T01:17:54.959Z,16.3
2016-08-13T01:18:04.961Z,16.4
2016-08-13T01:18:14.968Z,16.4
2016-08-13T01:18:24.969Z,16.4
2016-08-13T01:18:34.973Z,16.3
2016-08-13T01:18:44.992Z,16.4
2016-08-13T01:18:54.981Z,16.4
2016-08-13T01:19:04.986Z,16.4
2016-08-13T01:19:14.986Z,16.4
2016-08-13T01:19:24.992Z,16.3
2016-08-13T01:19:34.999Z,16.3
2016-08-13T01:19:45.013Z,16.3
2016-08-13T01:19:55.003Z,16.3
2016-08-13T01:20:05.007Z,16.4
2016-08-13T01:20:15.009Z,16.4
2016-08-13T01:20:25.012Z,16.4
2016-08-13T01:20:35.018Z,16.4
2016-08-13T01:20:45.018Z,16.4
2016-08-13T01:20:55.021Z,16.3
2016-08-13T01:21:05.025Z,16.3
2016-08-13T01:21:15.032Z,16.3
2016-08-13T01:21:25.031Z,16.3
2016-08-13T01:21:35.045Z,16.3
2016-08-13T01:21:45.037Z,16.3
2016-08-13T01:21:55.047Z,16.3
2016-08-13T01:22:05.046Z,16.3
2016-08-13T01:22:15.051Z,16.3
2016-08-13T01:22:25.052Z,16.3
2016-08-13T01:22:35.055Z,16.3
2016-08-13T01:22:45.063Z,16.4
2016-08-13T01:22:55.063Z,16.3
2016-08-13T01:23:05.070Z,16.3
2016-08-13T01:23:15.071Z,16.3
2016-08-13T01:23:25.078Z,16.3
2016-08-13T01:23:35.079Z,16.3
2016-08-13T01:23:45.084Z,16.3
2016-08-13T01:23:55.086Z,16.3
2016-08-13T01:24:05.090Z,16.2
2016-08-13T01:24:15.095Z,16.3
2016-08-13T01:24:25.096Z,16.2
2016-08-13T01:24:35.103Z,16.4
2016-08-13T01:24:45.102Z,16.3
2016-08-13T01:24:55.110Z,16.3
2016-08-13T01:25:05.110Z,16.3
2016-08-13T01:25:15.114Z,16.2
2016-08-13T01:25:25.116Z,16.2
2016-08-13T01:25:35.121Z,16.2
2016-08-13T01:25:45.124Z,16.3
2016-08-13T01:25:55.128Z,16.4
2016-08-13T01:26:05.131Z,16.3
2016-08-13T01:26:15.337Z,16.2
2016-08-13T01:26:25.142Z,16.3
2016-08-13T01:26:35.142Z,16.3
2016-08-13T01:26:45.145Z,16.4
2016-08-13T01:26:55.148Z,16.2
2016-08-13T01:27:05.152Z,16.3
2016-08-13T01:27:15.155Z,16.4
2016-08-13T01:27:25.159Z,16.3
2016-08-13T01:27:35.162Z,16.3
2016-08-13T01:27:45.165Z,16.4
2016-08-13T01:27:55.172Z,16.3
2016-08-13T01:28:05.173Z,16.4
2016-08-13T01:28:15.178Z,16.3
2016-08-13T01:28:25.179Z,16.3
2016-08-13T01:28:35.183Z,16.3
2016-08-13T01:28:45.187Z,16.3
2016-08-13T01:28:55.193Z,16.2
2016-08-13T01:29:05.196Z,16.2
2016-08-13T01:29:15.196Z,16.2
2016-08-13T01:29:25.202Z,16.2
2016-08-13T01:29:35.209Z,16.2
2016-08-13T01:29:45.213Z,16.3
2016-08-13T01:29:55.212Z,16.2
2016-08-13T01:30:05.213Z,16.3
2016-08-13T01:30:15.222Z,16.2
2016-08-13T01:30:25.221Z,16.2
2016-08-13T01:30:35.233Z,16.2
2016-08-13T01:30:45.229Z,16.2
2016-08-13T01:30:55.233Z,16.3
2016-08-13T01:31:05.237Z,16.2
2016-08-13T01:31:15.241Z,16.2
2016-08-13T01:31:25.246Z,16.2
2016-08-13T01:31:35.246Z,16.2
2016-08-13T01:31:45.250Z,16.2
2016-08-13T01:31:55.254Z,16.3
2016-08-13T01:32:05.258Z,16.3
2016-08-13T01:32:15.260Z,16.2
2016-08-13T01:32:25.266Z,16.2
2016-08-13T01:32:35.268Z,16.1
2016-08-13T01:32:45.272Z,16.2
2016-08-13T01:32:55.275Z,16.2
2016-08-13T01:33:05.278Z,16.2
2016-08-13T01:33:15.282Z,16.2
2016-08-13T01:33:25.287Z,16.3
2016-08-13T01:33:35.292Z,16.3
2016-08-13T01:33:45.294Z,16.2
2016-08-13T01:33:55.296Z,16.2
2016-08-13T01:34:05.299Z,16.2
2016-08-13T01:34:15.304Z,16.2
2016-08-13T01:34:25.306Z,16.2
2016-08-13T01:34:35.311Z,16.2
2016-08-13T01:34:45.314Z,16.2
2016-08-13T01:34:55.321Z,16.2
2016-08-13T01:35:05.322Z,16.3
2016-08-13T01:35:15.323Z,16.1
2016-08-13T01:35:25.326Z,16.1
2016-08-13T01:35:35.333Z,16.2
2016-08-13T01:35:45.334Z,16.2
2016-08-13T01:35:55.337Z,16.1
2016-08-13T01:36:05.340Z,16.1
2016-08-13T01:36:15.344Z,16.2
2016-08-13T01:36:25.349Z,16.2
2016-08-13T01:36:35.352Z,16.1
2016-08-13T01:36:45.359Z,16.1
2016-08-13T01:36:55.358Z,16.2
2016-08-13T01:37:05.362Z,16.1
2016-08-13T01:37:15.364Z,16.1
2016-08-13T01:37:25.370Z,16.2
2016-08-13T01:37:35.371Z,16.1
2016-08-13T01:37:45.376Z,16.1
2016-08-13T01:37:55.383Z,16.2
2016-08-13T01:38:05.372Z,16.2
2016-08-13T01:38:15.384Z,16.2
2016-08-13T01:38:25.379Z,16.2
2016-08-13T01:38:35.383Z,16.1
2016-08-13T01:38:45.388Z,16.2
2016-08-13T01:38:55.390Z,16.2
2016-08-13T01:39:05.403Z,16.2
2016-08-13T01:39:15.408Z,16.1
2016-08-13T01:39:25.400Z,16.1
2016-08-13T01:39:35.412Z,16.2
2016-08-13T01:39:45.407Z,16.1
2016-08-13T01:39:55.410Z,16.1
2016-08-13T01:40:05.416Z,16.1
2016-08-13T01:40:15.425Z,16.1
2016-08-13T01:40:25.431Z,16.1
2016-08-13T01:40:35.436Z,16.1
2016-08-13T01:40:45.428Z,16.1
2016-08-13T01:40:55.433Z,16.2
2016-08-13T01:41:05.434Z,16.2
2016-08-13T01:41:15.440Z,16.2
2016-08-13T01:41:25.454Z,16.1
2016-08-13T01:41:35.460Z,16.2
2016-08-13T01:41:45.458Z,16.1
2016-08-13T01:41:55.464Z,16.1
2016-08-13T01:42:05.465Z,16.2
2016-08-13T01:42:15.470Z,16.1
2016-08-13T01:42:25.473Z,16.1
2016-08-13T01:42:35.476Z,16.1
2016-08-13T01:42:45.484Z,16.2
2016-08-13T01:42:55.482Z,16.1
2016-08-13T01:43:05.489Z,16.2
2016-08-13T01:43:15.491Z,16.1
2016-08-13T01:43:25.494Z,16.1
2016-08-13T01:43:35.499Z,16.1
2016-08-13T01:43:45.500Z,16.1
2016-08-13T01:43:55.506Z,16.1
2016-08-13T01:44:05.509Z,16.1
2016-08-13T01:44:15.514Z,16.1
2016-08-13T01:44:25.517Z,16.1
2016-08-13T01:44:35.519Z,16.1
2016-08-13T01:44:45.521Z,16.1
2016-08-13T01:44:55.531Z,16
2016-08-13T01:45:05.528Z,16.1
2016-08-13T01:45:15.534Z,16.2
2016-08-13T01:45:25.539Z,16
2016-08-13T01:45:35.540Z,16.1
2016-08-13T01:45:45.545Z,16.1
2016-08-13T01:45:55.549Z,16.2
2016-08-13T01:46:05.553Z,16.1
2016-08-13T01:46:15.556Z,16
2016-08-13T01:46:25.558Z,16.2
2016-08-13T01:46:35.564Z,16
2016-08-13T01:46:45.573Z,16.1
2016-08-13T01:46:55.570Z,16.1
2016-08-13T01:47:05.573Z,16
2016-08-13T01:47:15.579Z,16.1
2016-08-13T01:47:25.581Z,16.1
2016-08-13T01:47:35.584Z,16.1
2016-08-13T01:47:45.588Z,16.1
2016-08-13T01:47:55.591Z,16.1
2016-08-13T01:48:05.594Z,16.1
2016-08-13T01:48:15.599Z,16.1
2016-08-13T01:48:25.601Z,16.1
2016-08-13T01:48:35.605Z,16.1
2016-08-13T01:48:45.609Z,16
2016-08-13T01:48:55.612Z,16
2016-08-13T01:49:05.618Z,16
2016-08-13T01:49:15.619Z,16.1
2016-08-13T01:49:25.623Z,16
2016-08-13T01:49:35.626Z,16
2016-08-13T01:49:45.629Z,16
2016-08-13T01:49:55.632Z,16.1
2016-08-13T01:50:05.638Z,16
2016-08-13T01:50:15.641Z,16.1
2016-08-13T01:50:25.651Z,16
2016-08-13T01:50:35.646Z,16.1
2016-08-13T01:50:45.650Z,16
2016-08-13T01:50:55.655Z,16.1
2016-08-13T01:51:05.657Z,16.1
2016-08-13T01:51:15.665Z,16.1
2016-08-13T01:51:25.663Z,16.1
2016-08-13T01:51:35.667Z,16.1
2016-08-13T01:51:45.673Z,16
2016-08-13T01:51:55.674Z,16.1
2016-08-13T01:52:05.680Z,16.1
2016-08-13T01:52:15.681Z,16
2016-08-13T01:52:25.685Z,16.1
2016-08-13T01:52:35.690Z,16
2016-08-13T01:52:45.692Z,16
2016-08-13T01:52:55.695Z,16.1
2016-08-13T01:53:05.705Z,16
2016-08-13T01:53:15.704Z,16.1
2016-08-13T01:53:25.708Z,16.1
2016-08-13T01:53:35.708Z,16
2016-08-13T01:53:45.713Z,16
2016-08-13T01:53:55.715Z,16.1
2016-08-13T01:54:05.720Z,16.1
2016-08-13T01:54:15.726Z,16.1
2016-08-13T01:54:25.726Z,16.1
2016-08-13T01:54:35.735Z,16.1
2016-08-13T01:54:45.734Z,16
2016-08-13T01:54:55.741Z,16.1
2016-08-13T01:55:05.742Z,16.1
2016-08-13T01:55:15.743Z,16
2016-08-13T01:55:25.749Z,16.1
2016-08-13T01:55:35.752Z,16.1
2016-08-13T01:55:45.754Z,16
2016-08-13T01:55:55.758Z,16
2016-08-13T01:56:05.765Z,16
2016-08-13T01:56:15.765Z,16.1
2016-08-13T01:56:25.769Z,16
2016-08-13T01:56:35.775Z,16
2016-08-13T01:56:45.775Z,16.1
2016-08-13T01:56:55.780Z,16.1
2016-08-13T01:57:05.782Z,16
2016-08-13T01:57:15.789Z,16.1
2016-08-13T01:57:25.790Z,16
2016-08-13T01:57:35.796Z,16
2016-08-13T01:57:45.795Z,15.9
2016-08-13T01:57:55.799Z,16
2016-08-13T01:58:05.803Z,16
2016-08-13T01:58:15.806Z,16
2016-08-13T01:58:25.811Z,16
2016-08-13T01:58:35.813Z,16
2016-08-13T01:58:45.819Z,16
2016-08-13T01:58:55.822Z,16
2016-08-13T01:59:05.825Z,16
2016-08-13T01:59:15.827Z,16
2016-08-13T01:59:25.830Z,15.9
2016-08-13T01:59:35.836Z,16
2016-08-13T01:59:45.839Z,16
2016-08-13T01:59:55.839Z,15.9
2016-08-13T02:00:05.844Z,15.9
2016-08-13T02:00:15.848Z,16
2016-08-13T02:00:25.851Z,16
2016-08-13T02:00:35.858Z,16
2016-08-13T02:00:45.860Z,15.9
2016-08-13T02:00:55.870Z,15.9
2016-08-13T02:01:05.866Z,16
2016-08-13T02:01:15.868Z,15.9
2016-08-13T02:01:25.874Z,16
2016-08-13T02:01:35.878Z,16
2016-08-13T02:01:45.882Z,16
2016-08-13T02:01:55.885Z,16
2016-08-13T02:02:05.888Z,15.9
2016-08-13T02:02:15.892Z,15.9
2016-08-13T02:02:25.896Z,16
2016-08-13T02:02:35.896Z,15.9
2016-08-13T02:02:45.906Z,16
2016-08-13T02:02:55.904Z,16
2016-08-13T02:03:05.912Z,15.9
2016-08-13T02:03:15.912Z,15.9
2016-08-13T02:03:25.913Z,15.9
2016-08-13T02:03:35.918Z,16
2016-08-13T02:03:45.920Z,15.9
2016-08-13T02:03:55.926Z,15.9
2016-08-13T02:04:05.929Z,15.9
2016-08-13T02:04:15.931Z,15.9
2016-08-13T02:04:25.936Z,15.9
2016-08-13T02:04:35.941Z,16
2016-08-13T02:04:45.941Z,15.9
2016-08-13T02:04:55.946Z,15.9
2016-08-13T02:05:05.950Z,15.9
2016-08-13T02:05:15.952Z,15.9
2016-08-13T02:05:25.957Z,15.9
2016-08-13T02:05:35.958Z,15.8
2016-08-13T02:05:45.967Z,15.9
2016-08-13T02:05:55.967Z,15.9
2016-08-13T02:06:05.969Z,15.9
2016-08-13T02:06:15.975Z,15.9
2016-08-13T02:06:25.975Z,15.9
2016-08-13T02:06:35.980Z,15.9
2016-08-13T02:06:45.993Z,15.9
2016-08-13T02:06:55.990Z,15.9
2016-08-13T02:07:05.991Z,15.9
2016-08-13T02:07:15.996Z,15.9
2016-08-13T02:07:26.000Z,15.8
2016-08-13T02:07:36.007Z,16
2016-08-13T02:07:46.004Z,15.9
2016-08-13T02:07:56.007Z,15.9
2016-08-13T02:08:06.012Z,15.8
2016-08-13T02:08:16.013Z,15.9
2016-08-13T02:08:26.019Z,15.9
2016-08-13T02:08:36.023Z,15.8
2016-08-13T02:08:46.027Z,15.9
2016-08-13T02:08:56.028Z,15.8
2016-08-13T02:09:06.032Z,15.9
2016-08-13T02:09:16.036Z,15.8
2016-08-13T02:09:26.042Z,15.8
2016-08-13T02:09:36.044Z,15.9
2016-08-13T02:09:46.047Z,15.8
2016-08-13T02:09:56.053Z,15.8
2016-08-13T02:10:06.055Z,15.9
2016-08-13T02:10:16.058Z,15.9
2016-08-13T02:10:26.060Z,15.9
2016-08-13T02:10:36.066Z,15.9
2016-08-13T02:10:46.068Z,15.9
2016-08-13T02:10:56.070Z,15.9
2016-08-13T02:11:06.076Z,15.9
2016-08-13T02:11:16.078Z,15.8
2016-08-13T02:11:26.080Z,15.9
2016-08-13T02:11:36.093Z,15.9
2016-08-13T02:11:46.087Z,15.9
2016-08-13T02:11:56.090Z,15.8
2016-08-13T02:12:06.097Z,15.9
2016-08-13T02:12:16.100Z,15.9
2016-08-13T02:12:26.101Z,15.8
2016-08-13T02:12:36.109Z,15.9
2016-08-13T02:12:46.113Z,15.9
2016-08-13T02:12:56.114Z,15.9
2016-08-13T02:13:06.115Z,15.8
2016-08-13T02:13:16.120Z,15.8
2016-08-13T02:13:26.123Z,15.9
2016-08-13T02:13:36.136Z,15.9
2016-08-13T02:13:46.128Z,15.9
2016-08-13T02:13:56.136Z,15.9
2016-08-13T02:14:06.136Z,15.9